createdAt,value
2018-10-01T00:00:16.178Z,9.80
2018-10-01T00:02:44.847Z,9.80
2018-10-01T00:05:13.472Z,9.80
2018-10-01T00:07:42.128Z,9.80
2018-10-01T00:10:10.870Z,9.80
2018-10-01T00:12:39.505Z,9.80
2018-10-01T00:15:08.183Z,9.90
2018-10-01T00:17:36.824Z,9.90
2018-10-01T00:20:10.849Z,9.90
2018-10-01T00:22:46.912Z,9.90
2018-10-01T00:25:15.880Z,9.90
2018-10-01T00:27:44.578Z,9.90
2018-10-01T00:30:13.296Z,9.80
2018-10-01T00:32:42.024Z,9.80
2018-10-01T00:35:11.028Z,9.80
2018-10-01T00:37:39.700Z,9.70
2018-10-01T00:40:08.376Z,9.70
2018-10-01T00:42:37.235Z,9.60
2018-10-01T00:45:06.695Z,9.60
2018-10-01T00:47:35.319Z,9.50
2018-10-01T00:50:04.011Z,9.50
2018-10-01T00:52:32.688Z,9.50
2018-10-01T00:55:01.336Z,9.40
2018-10-01T00:57:29.963Z,9.40
2018-10-01T00:59:58.603Z,9.30
2018-10-01T01:02:27.247Z,9.20
2018-10-01T01:04:55.878Z,9.20
2018-10-01T01:07:24.555Z,9.00
2018-10-01T01:09:53.195Z,8.90
2018-10-01T01:12:21.804Z,8.80
2018-10-01T01:14:50.799Z,8.70
2018-10-01T01:17:19.451Z,8.60
2018-10-01T01:19:48.071Z,8.60
2018-10-01T01:22:16.760Z,8.60
2018-10-01T01:24:45.368Z,8.60
2018-10-01T01:27:13.978Z,8.60
2018-10-01T01:29:42.704Z,8.60
2018-10-01T01:32:11.375Z,8.60
2018-10-01T01:34:39.992Z,8.60
2018-10-01T01:37:08.667Z,8.60
2018-10-01T01:39:37.379Z,8.60
2018-10-01T01:42:05.983Z,8.60
2018-10-01T01:44:34.627Z,8.50
2018-10-01T01:47:03.382Z,8.50
2018-10-01T01:49:32.087Z,8.50
2018-10-01T01:52:00.723Z,8.50
2018-10-01T01:54:29.385Z,8.60
2018-10-01T01:56:58.012Z,8.60
2018-10-01T01:59:26.651Z,8.60
2018-10-01T02:01:55.307Z,8.60
2018-10-01T02:04:23.996Z,8.60
2018-10-01T02:06:52.665Z,8.50
2018-10-01T02:09:21.298Z,8.50
2018-10-01T02:11:49.960Z,8.40
2018-10-01T02:14:18.589Z,8.30
2018-10-01T02:16:47.276Z,8.20
2018-10-01T02:19:15.990Z,8.20
2018-10-01T02:21:44.679Z,8.10
2018-10-01T02:24:13.332Z,8.10
2018-10-01T02:26:41.971Z,8.20
2018-10-01T02:29:10.946Z,8.20
2018-10-01T02:31:39.816Z,8.20
2018-10-01T02:34:08.279Z,8.20
2018-10-01T02:36:36.919Z,8.20
2018-10-01T02:39:09.087Z,8.20
2018-10-01T02:41:37.811Z,8.30
2018-10-01T02:44:06.544Z,8.30
2018-10-01T02:46:35.248Z,8.30
2018-10-01T02:49:03.968Z,8.20
2018-10-01T02:51:36.982Z,8.20
2018-10-01T02:54:10.861Z,8.10
2018-10-01T02:56:39.478Z,8.10
2018-10-01T02:59:08.151Z,8.00
2018-10-01T03:01:36.818Z,8.10
2018-10-01T03:04:05.509Z,8.00
2018-10-01T03:06:34.158Z,8.00
2018-10-01T03:09:02.800Z,8.00
2018-10-01T03:11:31.533Z,8.10
2018-10-01T03:14:00.204Z,8.00
2018-10-01T03:16:28.820Z,8.00
2018-10-01T03:18:57.521Z,8.10
2018-10-01T03:21:26.312Z,8.10
2018-10-01T03:23:54.862Z,8.20
2018-10-01T03:26:23.493Z,8.20
2018-10-01T03:28:52.132Z,8.20
2018-10-01T03:31:21.046Z,8.20
2018-10-01T03:33:49.664Z,8.20
2018-10-01T03:36:18.266Z,8.20
2018-10-01T03:38:47.002Z,8.30
2018-10-01T03:41:15.652Z,8.30
2018-10-01T03:43:44.275Z,8.30
2018-10-01T03:46:12.942Z,8.30
2018-10-01T03:48:41.580Z,8.30
2018-10-01T03:51:10.253Z,8.30
2018-10-01T03:53:38.907Z,8.20
2018-10-01T03:56:07.567Z,8.20
2018-10-01T03:58:36.197Z,8.20
2018-10-01T04:01:04.908Z,8.20
2018-10-01T04:03:33.525Z,8.20
2018-10-01T04:06:02.308Z,8.20
2018-10-01T04:08:30.907Z,8.20
2018-10-01T04:10:59.555Z,8.30
2018-10-01T04:13:28.341Z,8.30
2018-10-01T04:15:56.989Z,8.40
2018-10-01T04:18:25.602Z,8.40
2018-10-01T04:20:54.263Z,8.40
2018-10-01T04:23:22.938Z,8.40
2018-10-01T04:25:51.615Z,8.40
2018-10-01T04:28:20.352Z,8.40
2018-10-01T04:30:48.965Z,8.40
2018-10-01T04:33:17.648Z,8.50
2018-10-01T04:35:46.316Z,8.50
2018-10-01T04:38:14.972Z,8.50
2018-10-01T04:40:43.679Z,8.50
2018-10-01T04:43:12.296Z,8.50
2018-10-01T04:45:40.924Z,8.50
2018-10-01T04:48:10.168Z,8.40
2018-10-01T04:50:38.842Z,8.30
2018-10-01T04:53:07.487Z,8.20
2018-10-01T04:55:36.380Z,8.10
2018-10-01T04:58:05.068Z,8.00
2018-10-01T05:00:33.684Z,7.90
2018-10-01T05:03:02.352Z,7.70
2018-10-01T05:05:30.967Z,7.60
2018-10-01T05:07:59.622Z,7.60
2018-10-01T05:10:28.275Z,7.50
2018-10-01T05:12:56.952Z,7.50
2018-10-01T05:15:25.675Z,7.40
2018-10-01T05:17:54.318Z,7.40
2018-10-01T05:20:22.996Z,7.30
2018-10-01T05:22:51.616Z,7.30
2018-10-01T05:25:20.534Z,7.20
2018-10-01T05:27:49.203Z,7.10
2018-10-01T05:30:17.886Z,7.10
2018-10-01T05:32:46.551Z,7.00
2018-10-01T05:35:15.205Z,6.90
2018-10-01T05:37:43.844Z,7.00
2018-10-01T05:40:12.485Z,7.00
2018-10-01T05:42:41.535Z,7.00
2018-10-01T05:45:10.179Z,7.10
2018-10-01T05:47:38.857Z,7.10
2018-10-01T05:50:08.312Z,7.20
2018-10-01T05:52:36.907Z,7.20
2018-10-01T05:55:05.592Z,7.30
2018-10-01T05:57:34.287Z,7.20
2018-10-01T06:00:03.236Z,7.30
2018-10-01T06:02:31.944Z,7.30
2018-10-01T06:05:00.600Z,7.30
2018-10-01T06:07:29.256Z,7.40
2018-10-01T06:09:57.910Z,7.40
2018-10-01T06:12:26.598Z,7.50
2018-10-01T06:14:55.244Z,7.50
2018-10-01T06:17:23.855Z,7.60
2018-10-01T06:19:53.056Z,7.70
2018-10-01T06:22:21.691Z,7.80
2018-10-01T06:24:50.309Z,7.90
2018-10-01T06:27:18.968Z,8.00
2018-10-01T06:29:47.617Z,8.10
2018-10-01T06:32:16.265Z,8.10
2018-10-01T06:34:44.928Z,8.10
2018-10-01T06:37:13.636Z,8.00
2018-10-01T06:39:42.244Z,8.00
2018-10-01T06:42:10.911Z,8.00
2018-10-01T06:44:39.596Z,8.00
2018-10-01T06:47:08.264Z,8.00
2018-10-01T06:49:36.919Z,8.00
2018-10-01T06:52:05.551Z,8.00
2018-10-01T06:54:34.215Z,8.00
2018-10-01T06:57:02.818Z,8.00
2018-10-01T06:59:31.396Z,8.00
2018-10-01T07:02:00.091Z,8.10
2018-10-01T07:04:28.712Z,8.20
2018-10-01T07:06:57.345Z,8.20
2018-10-01T07:09:26.099Z,8.30
2018-10-01T07:11:54.751Z,8.40
2018-10-01T07:14:23.437Z,8.40
2018-10-01T07:16:52.128Z,8.50
2018-10-01T07:19:20.775Z,8.70
2018-10-01T07:21:49.404Z,8.80
2018-10-01T07:24:18.058Z,8.90
2018-10-01T07:26:46.779Z,8.90
2018-10-01T07:29:15.403Z,8.90
2018-10-01T07:31:44.062Z,9.00
2018-10-01T07:34:12.690Z,9.00
2018-10-01T07:36:41.355Z,9.00
2018-10-01T07:39:10.038Z,9.00
2018-10-01T07:41:38.675Z,9.20
2018-10-01T07:44:07.808Z,9.30
2018-10-01T07:46:36.420Z,9.40
2018-10-01T07:49:05.376Z,9.40
2018-10-01T07:51:34.021Z,9.60
2018-10-01T07:54:02.647Z,9.70
2018-10-01T07:56:31.284Z,9.70
2018-10-01T07:58:59.908Z,9.80
2018-10-01T08:01:28.537Z,9.90
2018-10-01T08:03:57.244Z,9.90
2018-10-01T08:06:25.923Z,9.90
2018-10-01T08:08:54.559Z,10.00
2018-10-01T08:11:23.231Z,10.10
2018-10-01T08:13:51.928Z,10.10
2018-10-01T08:16:20.644Z,10.10
2018-10-01T08:18:49.348Z,10.20
2018-10-01T08:21:17.971Z,10.30
2018-10-01T08:23:46.916Z,10.30
2018-10-01T08:26:15.638Z,10.40
2018-10-01T08:28:44.276Z,10.40
2018-10-01T08:31:12.925Z,10.50
2018-10-01T08:33:41.543Z,10.50
2018-10-01T08:36:10.149Z,10.60
2018-10-01T08:38:38.820Z,10.60
2018-10-01T08:41:07.694Z,10.70
2018-10-01T08:43:36.372Z,10.70
2018-10-01T08:46:05.047Z,10.70
2018-10-01T08:48:35.947Z,10.80
2018-10-01T08:51:11.711Z,10.90
2018-10-01T08:54:46.339Z,10.90
2018-10-01T08:57:14.991Z,11.00
2018-10-01T08:59:43.612Z,11.40
2018-10-01T09:02:12.277Z,11.60
2018-10-01T09:04:40.910Z,11.50
2018-10-01T09:07:09.586Z,11.50
2018-10-01T09:09:38.227Z,11.40
2018-10-01T09:12:06.880Z,11.40
2018-10-01T09:14:35.557Z,11.40
2018-10-01T09:17:04.309Z,11.50
2018-10-01T09:19:32.903Z,11.50
2018-10-01T09:22:01.560Z,11.70
2018-10-01T09:24:30.251Z,11.90
2018-10-01T09:26:58.900Z,12.00
2018-10-01T09:29:27.543Z,12.10
2018-10-01T09:31:56.221Z,12.00
2018-10-01T09:34:25.101Z,12.00
2018-10-01T09:36:53.757Z,12.10
2018-10-01T09:39:22.340Z,12.20
2018-10-01T09:41:50.952Z,12.40
2018-10-01T09:44:19.588Z,12.70
2018-10-01T09:46:48.222Z,12.70
2018-10-01T09:49:16.847Z,12.70
2018-10-01T09:51:45.502Z,12.50
2018-10-01T09:54:14.104Z,12.40
2018-10-01T09:56:42.869Z,12.40
2018-10-01T09:59:11.534Z,12.40
2018-10-01T10:01:40.170Z,12.40
2018-10-01T10:04:09.149Z,12.40
2018-10-01T10:06:37.779Z,12.40
2018-10-01T10:09:09.008Z,12.40
2018-10-01T10:11:37.708Z,12.50
2018-10-01T10:14:06.430Z,12.30
2018-10-01T10:16:35.218Z,11.90
2018-10-01T10:19:03.779Z,11.60
2018-10-01T10:21:32.443Z,11.20
2018-10-01T10:24:01.117Z,11.00
2018-10-01T10:26:29.762Z,10.80
2018-10-01T10:28:58.741Z,10.60
2018-10-01T10:31:27.447Z,10.60
2018-10-01T10:33:56.076Z,10.60
2018-10-01T10:36:24.703Z,10.70
2018-10-01T10:38:53.344Z,10.80
2018-10-01T10:41:21.987Z,10.90
2018-10-01T10:43:50.639Z,11.10
2018-10-01T10:46:19.289Z,11.30
2018-10-01T10:48:48.773Z,11.50
2018-10-01T10:51:17.460Z,11.60
2018-10-01T10:53:46.180Z,11.90
2018-10-01T10:56:14.811Z,11.80
2018-10-01T10:58:43.542Z,12.00
2018-10-01T11:01:12.197Z,12.10
2018-10-01T11:03:40.848Z,12.00
2018-10-01T11:06:09.459Z,12.00
2018-10-01T11:08:38.389Z,11.80
2018-10-01T11:11:07.041Z,11.70
2018-10-01T11:13:35.707Z,11.40
2018-10-01T11:16:04.355Z,10.90
2018-10-01T11:18:33.005Z,10.40
2018-10-01T11:21:01.787Z,10.20
2018-10-01T11:23:30.389Z,10.10
2018-10-01T11:25:59.068Z,9.90
2018-10-01T11:28:27.785Z,9.90
2018-10-01T11:30:56.407Z,9.90
2018-10-01T11:33:25.051Z,10.00
2018-10-01T11:35:53.649Z,10.10
2018-10-01T11:38:22.276Z,10.20
2018-10-01T11:40:50.911Z,10.30
2018-10-01T11:43:19.519Z,10.40
2018-10-01T11:45:48.350Z,10.60
2018-10-01T11:48:16.947Z,10.70
2018-10-01T11:50:45.559Z,10.80
2018-10-01T11:53:14.187Z,11.00
2018-10-01T11:55:42.950Z,11.10
2018-10-01T11:58:11.607Z,11.30
2018-10-01T12:00:40.255Z,11.60
2018-10-01T12:03:09.220Z,11.70
2018-10-01T12:05:37.849Z,11.90
2018-10-01T12:08:06.523Z,12.20
2018-10-01T12:10:35.181Z,12.20
2018-10-01T12:13:03.822Z,11.80
2018-10-01T12:15:32.830Z,11.20
2018-10-01T12:18:01.402Z,11.00
2018-10-01T12:20:30.120Z,10.80
2018-10-01T12:22:58.848Z,10.70
2018-10-01T12:25:27.500Z,10.50
2018-10-01T12:27:56.163Z,10.30
2018-10-01T12:30:25.081Z,10.20
2018-10-01T12:32:53.724Z,10.00
2018-10-01T12:35:22.347Z,9.80
2018-10-01T12:37:51.028Z,9.90
2018-10-01T12:40:19.697Z,10.10
2018-10-01T12:42:48.381Z,10.30
2018-10-01T12:45:17.130Z,10.50
2018-10-01T12:47:45.753Z,10.70
2018-10-01T12:50:14.394Z,10.80
2018-10-01T12:52:42.966Z,11.10
2018-10-01T12:55:11.636Z,11.30
2018-10-01T12:57:40.342Z,11.60
2018-10-01T13:00:08.984Z,11.60
2018-10-01T13:02:37.596Z,11.70
2018-10-01T13:05:06.599Z,11.90
2018-10-01T13:07:35.161Z,12.40
2018-10-01T13:10:03.922Z,12.60
2018-10-01T13:12:32.614Z,12.60
2018-10-01T13:15:01.224Z,12.50
2018-10-01T13:17:29.880Z,12.50
2018-10-01T13:19:58.551Z,12.40
2018-10-01T13:22:27.206Z,12.50
2018-10-01T13:24:55.916Z,12.50
2018-10-01T13:27:24.560Z,12.40
2018-10-01T13:29:53.248Z,12.40
2018-10-01T13:32:21.895Z,12.30
2018-10-01T13:34:50.540Z,12.20
2018-10-01T13:37:19.529Z,12.20
2018-10-01T13:39:48.170Z,12.40
2018-10-01T13:42:16.883Z,12.30
2018-10-01T13:44:46.707Z,12.00
2018-10-01T13:47:15.347Z,10.80
2018-10-01T13:49:43.966Z,10.20
2018-10-01T13:52:12.684Z,10.10
2018-10-01T13:54:41.599Z,10.20
2018-10-01T13:57:10.295Z,10.40
2018-10-01T13:59:38.971Z,10.60
2018-10-01T14:02:07.984Z,10.60
2018-10-01T14:04:36.511Z,10.50
2018-10-01T14:07:05.228Z,10.60
2018-10-01T14:09:33.929Z,10.60
2018-10-01T14:12:02.559Z,10.50
2018-10-01T14:14:31.230Z,10.50
2018-10-01T14:16:59.988Z,10.40
2018-10-01T14:19:28.824Z,10.50
2018-10-01T14:21:57.452Z,10.50
2018-10-01T14:24:26.060Z,10.50
2018-10-01T14:26:54.708Z,10.50
2018-10-01T14:29:23.357Z,10.40
2018-10-01T14:31:52.116Z,10.20
2018-10-01T14:34:20.781Z,10.00
2018-10-01T14:36:49.601Z,9.90
2018-10-01T14:39:18.111Z,9.80
2018-10-01T14:41:46.784Z,9.80
2018-10-01T14:44:15.831Z,10.10
2018-10-01T14:46:44.484Z,10.30
2018-10-01T14:49:13.151Z,10.10
2018-10-01T14:51:41.764Z,9.80
2018-10-01T14:54:10.437Z,9.50
2018-10-01T14:56:39.095Z,9.40
2018-10-01T14:59:07.719Z,9.30
2018-10-01T15:01:36.431Z,9.20
2018-10-01T15:04:05.090Z,9.10
2018-10-01T15:06:33.734Z,9.10
2018-10-01T15:09:02.391Z,9.00
2018-10-01T15:11:31.035Z,9.00
2018-10-01T15:13:59.686Z,8.90
2018-10-01T15:16:28.406Z,8.90
2018-10-01T15:18:57.026Z,8.90
2018-10-01T15:21:25.664Z,9.00
2018-10-01T15:23:54.429Z,9.10
2018-10-01T15:26:23.188Z,9.10
2018-10-01T15:28:51.852Z,9.10
2018-10-01T15:31:20.453Z,9.20
2018-10-01T15:33:49.071Z,9.20
2018-10-01T15:36:17.709Z,9.40
2018-10-01T15:38:46.339Z,9.40
2018-10-01T15:41:14.942Z,9.40
2018-10-01T15:43:43.583Z,9.30
2018-10-01T15:46:12.218Z,9.40
2018-10-01T15:48:40.858Z,9.40
2018-10-01T15:51:09.539Z,9.40
2018-10-01T15:53:38.147Z,9.40
2018-10-01T15:56:06.821Z,9.40
2018-10-01T15:58:35.484Z,9.40
2018-10-01T16:01:04.156Z,9.40
2018-10-01T16:03:32.787Z,9.30
2018-10-01T16:06:01.487Z,9.30
2018-10-01T16:08:30.244Z,9.20
2018-10-01T16:10:59.259Z,9.20
2018-10-01T16:13:27.894Z,9.20
2018-10-01T16:15:56.523Z,9.20
2018-10-01T16:18:25.276Z,9.10
2018-10-01T16:20:53.923Z,9.10
2018-10-01T16:23:22.612Z,9.10
2018-10-01T16:25:51.237Z,9.20
2018-10-01T16:28:19.880Z,9.20
2018-10-01T16:30:48.550Z,9.00
2018-10-01T16:33:17.189Z,8.70
2018-10-01T16:35:45.837Z,8.50
2018-10-01T16:38:14.531Z,8.30
2018-10-01T16:40:43.213Z,8.20
2018-10-01T16:43:11.887Z,8.10
2018-10-01T16:45:40.481Z,8.10
2018-10-01T16:48:09.116Z,8.00
2018-10-01T16:50:37.787Z,7.90
2018-10-01T16:53:06.431Z,7.90
2018-10-01T16:55:35.108Z,7.80
2018-10-01T16:58:03.779Z,7.80
2018-10-01T17:00:32.431Z,7.70
2018-10-01T17:03:01.104Z,7.60
2018-10-01T17:05:29.702Z,7.60
2018-10-01T17:07:58.616Z,7.50
2018-10-01T17:10:27.230Z,7.60
2018-10-01T17:12:55.886Z,7.60
2018-10-01T17:15:24.601Z,7.50
2018-10-01T17:17:53.229Z,7.40
2018-10-01T17:20:21.912Z,7.50
2018-10-01T17:22:50.668Z,7.50
2018-10-01T17:25:19.303Z,7.50
2018-10-01T17:27:47.940Z,7.60
2018-10-01T17:30:16.750Z,7.60
2018-10-01T17:32:45.348Z,7.70
2018-10-01T17:35:14.039Z,7.80
2018-10-01T17:37:42.703Z,7.80
2018-10-01T17:40:11.449Z,7.80
2018-10-01T17:42:40.116Z,7.80
2018-10-01T17:45:08.797Z,7.80
2018-10-01T17:47:37.489Z,7.80
2018-10-01T17:50:06.355Z,7.70
2018-10-01T17:52:35.228Z,7.70
2018-10-01T17:55:03.879Z,7.70
2018-10-01T17:57:32.514Z,7.60
2018-10-01T18:00:01.230Z,7.50
2018-10-01T18:02:29.900Z,7.50
2018-10-01T18:04:58.548Z,7.40
2018-10-01T18:07:27.220Z,7.40
2018-10-01T18:09:55.824Z,7.40
2018-10-01T18:12:24.441Z,7.30
2018-10-01T18:14:53.075Z,7.30
2018-10-01T18:17:21.711Z,7.30
2018-10-01T18:19:50.343Z,7.20
2018-10-01T18:22:19.025Z,7.20
2018-10-01T18:24:47.686Z,7.20
2018-10-01T18:27:16.329Z,7.20
2018-10-01T18:29:45.021Z,7.10
2018-10-01T18:32:13.662Z,7.10
2018-10-01T18:34:42.318Z,7.20
2018-10-01T18:37:10.964Z,7.20
2018-10-01T18:39:39.751Z,7.20
2018-10-01T18:42:08.419Z,7.20
2018-10-01T18:44:37.228Z,7.20
2018-10-01T18:47:06.061Z,7.20
2018-10-01T18:49:34.706Z,7.20
2018-10-01T18:52:03.372Z,7.10
2018-10-01T18:54:32.022Z,7.00
2018-10-01T18:57:00.708Z,6.90
2018-10-01T18:59:29.369Z,6.90
2018-10-01T19:01:58.096Z,6.90
2018-10-01T19:04:26.687Z,6.80
2018-10-01T19:06:55.411Z,6.80
2018-10-01T19:09:24.051Z,6.70
2018-10-01T19:11:52.711Z,6.70
2018-10-01T19:14:21.379Z,6.70
2018-10-01T19:16:50.070Z,6.70
2018-10-01T19:19:18.766Z,6.70
2018-10-01T19:21:47.398Z,6.60
2018-10-01T19:24:16.044Z,6.50
2018-10-01T19:26:44.744Z,6.50
2018-10-01T19:29:13.418Z,6.40
2018-10-01T19:31:42.159Z,6.40
2018-10-01T19:34:10.807Z,6.40
2018-10-01T19:36:39.471Z,6.30
2018-10-01T19:39:08.795Z,6.30
2018-10-01T19:41:37.489Z,6.30
2018-10-01T19:44:06.228Z,6.20
2018-10-01T19:46:34.922Z,6.10
2018-10-01T19:49:03.556Z,6.10
2018-10-01T19:51:32.270Z,6.10
2018-10-01T19:54:00.979Z,6.10
2018-10-01T19:56:29.649Z,6.00
2018-10-01T19:58:58.361Z,6.00
2018-10-01T20:01:26.976Z,5.90
2018-10-01T20:03:55.647Z,5.90
2018-10-01T20:06:24.315Z,5.80
2018-10-01T20:08:53.024Z,5.80
2018-10-01T20:11:21.719Z,5.70
2018-10-01T20:13:50.332Z,5.80
2018-10-01T20:16:18.939Z,5.80
2018-10-01T20:18:47.609Z,5.80
2018-10-01T20:21:16.367Z,5.80
2018-10-01T20:23:45.008Z,5.80
2018-10-01T20:26:13.707Z,5.80
2018-10-01T20:28:42.548Z,5.70
2018-10-01T20:31:11.126Z,5.70
2018-10-01T20:33:39.736Z,5.70
2018-10-01T20:36:08.587Z,5.70
2018-10-01T20:38:37.294Z,5.60
2018-10-01T20:41:06.017Z,5.60
2018-10-01T20:43:34.636Z,5.50
2018-10-01T20:46:03.301Z,5.50
2018-10-01T20:48:31.921Z,5.60
2018-10-01T20:51:00.591Z,5.50
2018-10-01T20:53:29.443Z,5.50
2018-10-01T20:55:58.091Z,5.50
2018-10-01T20:58:26.731Z,5.50
2018-10-01T21:00:55.390Z,5.50
2018-10-01T21:03:24.072Z,5.40
2018-10-01T21:05:52.680Z,5.50
2018-10-01T21:08:21.341Z,5.40
2018-10-01T21:10:49.985Z,5.50
2018-10-01T21:13:18.643Z,5.40
2018-10-01T21:15:47.291Z,5.40
2018-10-01T21:18:15.973Z,5.30
2018-10-01T21:20:44.756Z,5.30
2018-10-01T21:23:13.413Z,5.20
2018-10-01T21:25:42.053Z,5.20
2018-10-01T21:28:10.764Z,5.10
2018-10-01T21:30:39.449Z,5.10
2018-10-01T21:33:08.223Z,5.10
2018-10-01T21:35:36.917Z,5.20
2018-10-01T21:38:05.618Z,5.20
2018-10-01T21:40:34.297Z,5.20
2018-10-01T21:43:03.006Z,5.20
2018-10-01T21:45:31.634Z,5.20
2018-10-01T21:48:00.273Z,5.20
2018-10-01T21:50:28.981Z,5.20
2018-10-01T21:52:57.698Z,5.20
2018-10-01T21:55:26.368Z,5.20
2018-10-01T21:57:55.065Z,5.20
2018-10-01T22:00:23.820Z,5.20
2018-10-01T22:02:52.561Z,5.20
2018-10-01T22:05:21.210Z,5.30
2018-10-01T22:07:49.793Z,5.30
2018-10-01T22:10:18.440Z,5.30
2018-10-01T22:12:47.105Z,5.30
2018-10-01T22:15:15.742Z,5.40
2018-10-01T22:17:44.400Z,5.40
2018-10-01T22:20:13.052Z,5.40
2018-10-01T22:22:41.704Z,5.40
2018-10-01T22:25:10.371Z,5.30
2018-10-01T22:27:39.050Z,5.30
2018-10-01T22:30:07.957Z,5.30
2018-10-01T22:32:36.629Z,5.30
2018-10-01T22:35:05.406Z,5.30
2018-10-01T22:37:34.122Z,5.30
2018-10-01T22:40:02.844Z,5.30
2018-10-01T22:42:31.509Z,5.40
2018-10-01T22:45:00.127Z,5.30
2018-10-01T22:47:28.813Z,5.30
2018-10-01T22:49:57.481Z,5.30
2018-10-01T22:52:26.253Z,5.30
2018-10-01T22:54:54.892Z,5.30
2018-10-01T22:57:23.597Z,5.20
2018-10-01T22:59:52.288Z,5.20
2018-10-01T23:02:20.921Z,5.20
2018-10-01T23:04:49.669Z,5.20
2018-10-01T23:07:18.306Z,5.20
2018-10-01T23:09:47.068Z,5.20
2018-10-01T23:12:15.726Z,5.10
2018-10-01T23:14:44.386Z,5.10
2018-10-01T23:17:13.133Z,5.10
2018-10-01T23:19:41.761Z,5.10
2018-10-01T23:22:10.394Z,5.10
2018-10-01T23:24:39.107Z,5.10
2018-10-01T23:27:07.797Z,5.10
2018-10-01T23:29:36.458Z,5.10
2018-10-01T23:32:05.314Z,5.10
2018-10-01T23:34:33.908Z,5.10
2018-10-01T23:37:02.633Z,5.10
2018-10-01T23:39:31.352Z,5.10
2018-10-01T23:42:00.050Z,5.10
2018-10-01T23:44:28.752Z,5.10
2018-10-01T23:46:57.397Z,5.10
2018-10-01T23:49:26.080Z,5.10
2018-10-01T23:51:54.837Z,5.10
2018-10-01T23:54:23.489Z,5.20
2018-10-01T23:56:52.163Z,5.20
2018-10-01T23:59:20.894Z,5.30
